Nassauborg — PHDU — position and weather

sailwx.info

Track history (hours):
 
Tides and Currents Weather Stations Pressure Air Temp Water Temp Dewpoint Dewpoint Depression Visibility Wind Speed Wind Dir Waves Ship Positions

Nassauborg

Ship's website: http://www.wagenborg.com/index.cfm?pid=37&itemid=158&contentitemid=236

Last reported at 2014-Sep-02 23:33 UTC. Time now 2014-Sep-02 23:57 UTC.
Position N 53°31' E 009°56'.

Length 143 m; beam 22 m.

Type: Cargo ship. MMSI: 246430000.

Date/timePositionNaut miles runAvg speedWind from/ knotsBaromVisibWave heightAir tempDewpointWater temp
2014-Sep-02 23:33N 53°31' E 009°56'0 0.0
2014-Sep-02 22:33N 53°31' E 009°56'0 0.0
2014-Sep-02 21:33N 53°31' E 009°56'0 0.0
2014-Sep-02 20:33N 53°31' E 009°56'0 0.0
2014-Sep-02 19:33N 53°31' E 009°56'0 0.0
2014-Sep-02 18:33N 53°31' E 009°56'0 0.0
2014-Sep-02 17:33N 53°31' E 009°56'0 0.0
2014-Sep-02 16:33N 53°31' E 009°56'0 0.0
2014-Sep-02 15:33N 53°31' E 009°56'0 0.0
2014-Sep-02 14:33N 53°31' E 009°56'0 0.0
2014-Sep-02 13:33N 53°31' E 009°56'0 0.0
2014-Sep-02 12:33N 53°31' E 009°56'0 0.0
2014-Sep-02 11:33N 53°31' E 009°56'0 0.0
2014-Sep-02 10:33N 53°31' E 009°56'0 0.0
2014-Sep-02 09:33N 53°31' E 009°56'0 0.0
2014-Sep-02 08:33N 53°31' E 009°56'0 0.0
2014-Sep-02 07:33N 53°31' E 009°56'0 0.0
2014-Sep-02 06:33N 53°31' E 009°56'0 0.0
2014-Sep-02 05:33N 53°31' E 009°56'2 2.1
2014-Sep-02 04:33N 53°32' E 009°54'1010.4
2014-Sep-02 03:33N 53°35' E 009°37'1313.5
2014-Sep-02 02:33N 53°46' E 009°24'1211.6
2014-Sep-02 01:33N 53°53' E 009°08'1 0.5
2014-Sep-02 00:33N 53°54' E 009°09'4 3.7
2014-Sep-01 23:33N 53°56' E 009°13'8 8.2
2014-Sep-01 22:33N 54°04' E 009°19'7 7.5
2014-Sep-01 21:33N 54°10' E 009°26'6 5.9
2014-Sep-01 20:33N 54°13' E 009°35'67 5.4
2014-Sep-01 08:13N 54°32' E 011°24'812.0
2014-Sep-01 07:33N 54°29' E 011°37'1111.4
2014-Sep-01 06:33N 54°27' E 011°56'1010.0
2014-Sep-01 05:33N 54°31' E 012°12'1111.0
2014-Sep-01 04:33N 54°40' E 012°23'1111.3
2014-Sep-01 03:33N 54°46' E 012°39'2211.1
2014-Sep-01 01:33N 54°54' E 013°15'1211.7
2014-Sep-01 00:32N 54°59' E 013°34'1111.6
2014-Aug-31 23:33N 55°03' E 013°53'1111.1
2014-Aug-31 22:33N 55°09' E 014°09'1211.7
2014-Aug-31 21:33N 55°17' E 014°23'1211.6
2014-Aug-31 20:33N 55°26' E 014°37'1111.4
2014-Aug-31 19:33N 55°32' E 014°55'1211.6
2014-Aug-31 18:33N 55°38' E 015°12'1211.8
2014-Aug-31 17:30N 55°44' E 015°31'1211.4
2014-Aug-31 16:28N 55°50' E 015°49'1011.5
2014-Aug-31 15:33N 55°56' E 016°05'7410.6
2014-Aug-31 08:33N 56°58' E 017°17'1111.2
2014-Aug-31 07:33N 57°08' E 017°24'1111.0
2014-Aug-31 06:33N 57°19' E 017°32'1411.2
2014-Aug-31 05:18N 57°32' E 017°42'  
2014-Aug-28 13:33N 57°24' E 017°48'1414.1
2014-Aug-28 12:33N 57°11' E 017°38'1414.4
2014-Aug-28 11:33N 56°58' E 017°28'5714.2
2014-Aug-28 07:32N 56°06' E 016°47'5614.1
2014-Aug-28 03:33N 55°37' E 015°21'1413.6
2014-Aug-28 02:33N 55°30' E 015°01'1413.8
2014-Aug-28 01:33N 55°23' E 014°40'1413.8
2014-Aug-28 00:33N 55°13' E 014°24'4 4.5
2014-Aug-27 23:34N 55°10' E 014°19'1211.9
2014-Aug-27 22:33N 55°01' E 014°04'1313.3
2014-Aug-27 21:33N 54°56' E 013°43'1313.3
2014-Aug-27 20:33N 54°52' E 013°21'1312.7
2014-Aug-27 19:33N 54°46' E 013°00'1312.9
2014-Aug-27 18:33N 54°42' E 012°40'1313.4
2014-Aug-27 17:33N 54°34' E 012°22'1212.5
2014-Aug-27 16:33N 54°25' E 012°06'1413.5
2014-Aug-27 15:33N 54°26' E 011°43'67 8.3
2014-Aug-27 07:26N 54°22' E 009°48'6 6.0
2014-Aug-27 06:29N 54°18' E 009°41'6 6.5
2014-Aug-27 05:33N 54°13' E 009°35'8 8.4
2014-Aug-27 04:33N 54°09' E 009°22'4 4.0
2014-Aug-27 03:33N 54°05' E 009°19'8 8.1
2014-Aug-27 02:33N 53°58' E 009°15'6 5.7
2014-Aug-27 01:33N 53°54' E 009°09'2 1.6
2014-Aug-27 00:33N 53°53' E 009°06'0 0.1
2014-Aug-26 23:33N 53°53' E 009°06'0 0.0
2014-Aug-26 22:33N 53°53' E 009°06'0 0.2
2014-Aug-26 21:33N 53°53' E 009°06'0 0.0
2014-Aug-26 20:33N 53°53' E 009°06'0 0.0
2014-Aug-26 19:33N 53°53' E 009°06'0 0.0
2014-Aug-26 18:33N 53°53' E 009°06'4 4.4
2014-Aug-26 17:33N 53°51' E 008°59'9 9.1
2014-Aug-26 16:34N 53°52' E 008°44'9 9.3
2014-Aug-26 15:33N 53°58' E 008°32'1110.5
2014-Aug-26 14:29N 53°60' E 008°13'1111.7
2014-Aug-26 13:32N 53°57' E 007°55'5513.0
2014-Aug-26 09:17N 53°44' E 006°24'1013.6
2014-Aug-26 08:32N 53°42' E 006°07'1313.2
2014-Aug-26 07:33N 53°38' E 005°46'1313.4
2014-Aug-26 06:33N 53°34' E 005°25'1313.2
2014-Aug-26 05:33N 53°29' E 005°04'1312.8
2014-Aug-26 04:33N 53°24' E 004°44'1613.2
2014-Aug-26 03:22N 53°10' E 004°31'2212.3
2014-Aug-26 01:33N 52°50' E 004°15'1111.2
2014-Aug-26 00:33N 52°42' E 004°02'7811.1
2014-Aug-25 17:29N 51°44' E 002°37'1212.8
2014-Aug-25 16:32N 51°34' E 002°25'1313.6
2014-Aug-25 15:33N 51°23' E 002°12'1312.9
2014-Aug-25 14:33N 51°12' E 002°01'1111.4
2014-Aug-25 13:33N 51°03' E 001°52'1010.4
2014-Aug-25 12:33N 51°03' E 002°08'8 7.6
2014-Aug-25 11:32N 51°03' E 002°20'1 1.1
2014-Aug-25 10:28N 51°03' E 002°19'0 0.0
2014-Aug-25 09:29N 51°03' E 002°19'0 0.0
2014-Aug-25 08:34N 51°03' E 002°19'0 0.0
2014-Aug-25 07:33N 51°03' E 002°19'0 0.0
2014-Aug-25 05:21N 51°03' E 002°19'0 0.0
2014-Aug-25 04:33N 51°03' E 002°19'0 0.0
2014-Aug-25 03:20N 51°03' E 002°19'0 0.0
2014-Aug-25 02:23N 51°03' E 002°19'0 0.0
2014-Aug-25 01:31N 51°03' E 002°19'0 0.0
2014-Aug-25 00:04N 51°03' E 002°19'0 0.0
2014-Aug-24 23:08N 51°03' E 002°19'0 0.0
2014-Aug-24 22:26N 51°03' E 002°19'0 0.0
2014-Aug-24 19:10N 51°03' E 002°19'0 0.0
2014-Aug-24 17:25N 51°03' E 002°19'0 0.0
2014-Aug-24 16:05N 51°03' E 002°19'0 0.0
2014-Aug-24 15:29N 51°03' E 002°19'0 0.0
2014-Aug-24 14:30N 51°03' E 002°19'0 0.0
2014-Aug-24 13:29N 51°03' E 002°19'0 0.0
2014-Aug-24 12:33N 51°03' E 002°19'0 0.0
2014-Aug-24 11:33N 51°03' E 002°19'0 0.0
2014-Aug-24 10:32N 51°03' E 002°19'0 0.0
2014-Aug-24 09:31N 51°03' E 002°19'0 0.0
2014-Aug-24 08:32N 51°03' E 002°19'0 0.0
2014-Aug-24 07:28N 51°03' E 002°19'0 0.0
2014-Aug-24 06:33N 51°03' E 002°19'1 1.0
2014-Aug-24 05:33N 51°03' E 002°20'1 0.8
2014-Aug-24 04:32N 51°04' E 002°20'1411.9
2014-Aug-24 03:24N 51°02' E 001°58'8 9.7
2014-Aug-24 02:33N 51°03' E 001°45'8 7.9
2014-Aug-24 01:34N 51°11' E 001°45'1110.9
2014-Aug-24 00:33N 51°21' E 001°54'  
Track history (hours):
 
Tides and Currents Weather Stations Pressure Air Temp Water Temp Dewpoint Dewpoint Depression Visibility Wind Speed Wind Dir Waves Ship Positions

Nassauborg

Ship's website: http://www.wagenborg.com/index.cfm?pid=37&itemid=158&contentitemid=236

Last reported at 2014-Sep-02 23:33 UTC. Time now 2014-Sep-02 23:57 UTC.
Position N 53°31' E 009°56'.

Length 143 m; beam 22 m.

Type: Cargo ship. MMSI: 246430000.

Date/timePositionNaut miles runAvg speedWind from/ knotsBaromVisibWave heightAir tempDewpointWater temp
2014-Sep-02 23:33N 53°31' E 009°56'0 0.0
2014-Sep-02 22:33N 53°31' E 009°56'0 0.0
2014-Sep-02 21:33N 53°31' E 009°56'0 0.0
2014-Sep-02 20:33N 53°31' E 009°56'0 0.0
2014-Sep-02 19:33N 53°31' E 009°56'0 0.0
2014-Sep-02 18:33N 53°31' E 009°56'0 0.0
2014-Sep-02 17:33N 53°31' E 009°56'0 0.0
2014-Sep-02 16:33N 53°31' E 009°56'0 0.0
2014-Sep-02 15:33N 53°31' E 009°56'0 0.0
2014-Sep-02 14:33N 53°31' E 009°56'0 0.0
2014-Sep-02 13:33N 53°31' E 009°56'0 0.0
2014-Sep-02 12:33N 53°31' E 009°56'0 0.0
2014-Sep-02 11:33N 53°31' E 009°56'0 0.0
2014-Sep-02 10:33N 53°31' E 009°56'0 0.0
2014-Sep-02 09:33N 53°31' E 009°56'0 0.0
2014-Sep-02 08:33N 53°31' E 009°56'0 0.0
2014-Sep-02 07:33N 53°31' E 009°56'0 0.0
2014-Sep-02 06:33N 53°31' E 009°56'0 0.0
2014-Sep-02 05:33N 53°31' E 009°56'2 2.1
2014-Sep-02 04:33N 53°32' E 009°54'1010.4
2014-Sep-02 03:33N 53°35' E 009°37'1313.5
2014-Sep-02 02:33N 53°46' E 009°24'1211.6
2014-Sep-02 01:33N 53°53' E 009°08'1 0.5
2014-Sep-02 00:33N 53°54' E 009°09'4 3.7
2014-Sep-01 23:33N 53°56' E 009°13'8 8.2
2014-Sep-01 22:33N 54°04' E 009°19'7 7.5
2014-Sep-01 21:33N 54°10' E 009°26'6 5.9
2014-Sep-01 20:33N 54°13' E 009°35'67 5.4
2014-Sep-01 08:13N 54°32' E 011°24'812.0
2014-Sep-01 07:33N 54°29' E 011°37'1111.4
2014-Sep-01 06:33N 54°27' E 011°56'1010.0
2014-Sep-01 05:33N 54°31' E 012°12'1111.0
2014-Sep-01 04:33N 54°40' E 012°23'1111.3
2014-Sep-01 03:33N 54°46' E 012°39'2211.1
2014-Sep-01 01:33N 54°54' E 013°15'1211.7
2014-Sep-01 00:32N 54°59' E 013°34'1111.6
2014-Aug-31 23:33N 55°03' E 013°53'1111.1
2014-Aug-31 22:33N 55°09' E 014°09'1211.7
2014-Aug-31 21:33N 55°17' E 014°23'1211.6
2014-Aug-31 20:33N 55°26' E 014°37'1111.4
2014-Aug-31 19:33N 55°32' E 014°55'1211.6
2014-Aug-31 18:33N 55°38' E 015°12'1211.8
2014-Aug-31 17:30N 55°44' E 015°31'1211.4
2014-Aug-31 16:28N 55°50' E 015°49'1011.5
2014-Aug-31 15:33N 55°56' E 016°05'7410.6
2014-Aug-31 08:33N 56°58' E 017°17'1111.2
2014-Aug-31 07:33N 57°08' E 017°24'1111.0
2014-Aug-31 06:33N 57°19' E 017°32'1411.2
2014-Aug-31 05:18N 57°32' E 017°42'  
2014-Aug-28 13:33N 57°24' E 017°48'1414.1
2014-Aug-28 12:33N 57°11' E 017°38'1414.4
2014-Aug-28 11:33N 56°58' E 017°28'5714.2
2014-Aug-28 07:32N 56°06' E 016°47'5614.1
2014-Aug-28 03:33N 55°37' E 015°21'1413.6
2014-Aug-28 02:33N 55°30' E 015°01'1413.8
2014-Aug-28 01:33N 55°23' E 014°40'1413.8
2014-Aug-28 00:33N 55°13' E 014°24'4 4.5
2014-Aug-27 23:34N 55°10' E 014°19'1211.9
2014-Aug-27 22:33N 55°01' E 014°04'1313.3
2014-Aug-27 21:33N 54°56' E 013°43'1313.3
2014-Aug-27 20:33N 54°52' E 013°21'1312.7
2014-Aug-27 19:33N 54°46' E 013°00'1312.9
2014-Aug-27 18:33N 54°42' E 012°40'1313.4
2014-Aug-27 17:33N 54°34' E 012°22'1212.5
2014-Aug-27 16:33N 54°25' E 012°06'1413.5
2014-Aug-27 15:33N 54°26' E 011°43'67 8.3
2014-Aug-27 07:26N 54°22' E 009°48'6 6.0
2014-Aug-27 06:29N 54°18' E 009°41'6 6.5
2014-Aug-27 05:33N 54°13' E 009°35'8 8.4
2014-Aug-27 04:33N 54°09' E 009°22'4 4.0
2014-Aug-27 03:33N 54°05' E 009°19'8 8.1
2014-Aug-27 02:33N 53°58' E 009°15'6 5.7
2014-Aug-27 01:33N 53°54' E 009°09'2 1.6
2014-Aug-27 00:33N 53°53' E 009°06'0 0.1
2014-Aug-26 23:33N 53°53' E 009°06'0 0.0
2014-Aug-26 22:33N 53°53' E 009°06'0 0.2
2014-Aug-26 21:33N 53°53' E 009°06'0 0.0
2014-Aug-26 20:33N 53°53' E 009°06'0 0.0
2014-Aug-26 19:33N 53°53' E 009°06'0 0.0
2014-Aug-26 18:33N 53°53' E 009°06'4 4.4
2014-Aug-26 17:33N 53°51' E 008°59'9 9.1
2014-Aug-26 16:34N 53°52' E 008°44'9 9.3
2014-Aug-26 15:33N 53°58' E 008°32'1110.5
2014-Aug-26 14:29N 53°60' E 008°13'1111.7
2014-Aug-26 13:32N 53°57' E 007°55'5513.0
2014-Aug-26 09:17N 53°44' E 006°24'1013.6
2014-Aug-26 08:32N 53°42' E 006°07'1313.2
2014-Aug-26 07:33N 53°38' E 005°46'1313.4
2014-Aug-26 06:33N 53°34' E 005°25'1313.2
2014-Aug-26 05:33N 53°29' E 005°04'1312.8
2014-Aug-26 04:33N 53°24' E 004°44'1613.2
2014-Aug-26 03:22N 53°10' E 004°31'2212.3
2014-Aug-26 01:33N 52°50' E 004°15'1111.2
2014-Aug-26 00:33N 52°42' E 004°02'7811.1
2014-Aug-25 17:29N 51°44' E 002°37'1212.8
2014-Aug-25 16:32N 51°34' E 002°25'1313.6
2014-Aug-25 15:33N 51°23' E 002°12'1312.9
2014-Aug-25 14:33N 51°12' E 002°01'1111.4
2014-Aug-25 13:33N 51°03' E 001°52'1010.4
2014-Aug-25 12:33N 51°03' E 002°08'8 7.6
2014-Aug-25 11:32N 51°03' E 002°20'1 1.1
2014-Aug-25 10:28N 51°03' E 002°19'0 0.0
2014-Aug-25 09:29N 51°03' E 002°19'0 0.0
2014-Aug-25 08:34N 51°03' E 002°19'0 0.0
2014-Aug-25 07:33N 51°03' E 002°19'0 0.0
2014-Aug-25 05:21N 51°03' E 002°19'0 0.0
2014-Aug-25 04:33N 51°03' E 002°19'0 0.0
2014-Aug-25 03:20N 51°03' E 002°19'0 0.0
2014-Aug-25 02:23N 51°03' E 002°19'0 0.0
2014-Aug-25 01:31N 51°03' E 002°19'0 0.0
2014-Aug-25 00:04N 51°03' E 002°19'0 0.0
2014-Aug-24 23:08N 51°03' E 002°19'0 0.0
2014-Aug-24 22:26N 51°03' E 002°19'0 0.0
2014-Aug-24 19:10N 51°03' E 002°19'0 0.0
2014-Aug-24 17:25N 51°03' E 002°19'0 0.0
2014-Aug-24 16:05N 51°03' E 002°19'0 0.0
2014-Aug-24 15:29N 51°03' E 002°19'0 0.0
2014-Aug-24 14:30N 51°03' E 002°19'0 0.0
2014-Aug-24 13:29N 51°03' E 002°19'0 0.0
2014-Aug-24 12:33N 51°03' E 002°19'0 0.0
2014-Aug-24 11:33N 51°03' E 002°19'0 0.0
2014-Aug-24 10:32N 51°03' E 002°19'0 0.0
2014-Aug-24 09:31N 51°03' E 002°19'0 0.0
2014-Aug-24 08:32N 51°03' E 002°19'0 0.0
2014-Aug-24 07:28N 51°03' E 002°19'0 0.0
2014-Aug-24 06:33N 51°03' E 002°19'1 1.0
2014-Aug-24 05:33N 51°03' E 002°20'1 0.8
2014-Aug-24 04:32N 51°04' E 002°20'1411.9
2014-Aug-24 03:24N 51°02' E 001°58'8 9.7
2014-Aug-24 02:33N 51°03' E 001°45'8 7.9
2014-Aug-24 01:34N 51°11' E 001°45'1110.9
2014-Aug-24 00:33N 51°21' E 001°54'  

Dump ship's entire track history